Time;durP1;ratioP1;P1;durP2;ratioP2;P2;SDS_P1;SDS_P2;PMS_P1;PMS_P2;Temp;Humidity;BMP_temperature;BMP_pressure;BME280_temperature;BME280_humidity;BME280_pressure;Samples;Min_cycle;Max_cycle;Signal;HPM_P1;HPM_P2
2021/10/10 00:00:35;;;;;;;15.13;11.43;;;8.90;95.40;;;8.64;85.60;99095.72;5052891;28;20995;-82
2021/10/10 00:03:06;;;;;;;14.70;11.67;;;8.90;95.40;;;8.64;85.98;99092.28;5059365;28;20625;-82
2021/10/10 00:05:37;;;;;;;14.47;11.57;;;8.90;95.90;;;8.67;85.69;99100.78;5056619;28;20722;-82
2021/10/10 00:08:06;;;;;;;14.30;11.10;;;8.90;96.00;;;8.64;86.05;99094.88;5061056;28;20644;-82
2021/10/10 00:10:41;;;;;;;15.70;11.00;;;8.80;96.20;;;8.64;85.84;99100.06;5059917;28;20698;-82
2021/10/10 00:13:10;;;;;;;15.33;12.10;;;8.90;96.40;;;8.63;86.70;99103.56;5060469;28;20626;-82
2021/10/10 00:15:39;;;;;;;18.50;11.53;;;8.90;96.40;;;8.60;85.39;99101.09;5058030;28;20599;-82
2021/10/10 00:18:07;;;;;;;17.00;11.47;;;8.90;96.20;;;8.57;85.57;99103.88;5059566;28;21204;-82
2021/10/10 00:20:37;;;;;;;16.30;11.53;;;8.90;96.30;;;8.55;86.23;99097.88;5051724;28;20613;-82
2021/10/10 00:23:05;;;;;;;15.50;11.30;;;8.80;96.10;;;8.51;86.52;99104.97;5056309;28;20623;-82
2021/10/10 00:25:36;;;;;;;15.20;11.43;;;8.80;96.10;;;8.50;86.67;99099.84;5068884;28;20751;-82
2021/10/10 00:28:06;;;;;;;14.37;11.00;;;8.80;96.30;;;8.49;86.13;99095.56;5050798;28;20633;-82
2021/10/10 00:30:35;;;;;;;15.80;11.60;;;8.70;96.00;;;8.45;86.77;99097.44;5053383;28;20624;-82
2021/10/10 00:33:04;;;;;;;16.60;11.70;;;8.70;96.00;;;8.43;85.48;99094.97;5053982;28;20633;-82
2021/10/10 00:35:34;;;;;;;13.10;10.53;;;8.70;96.20;;;8.40;85.40;99095.94;5057253;28;20621;-82
2021/10/10 00:38:05;;;;;;;15.60;11.50;;;8.70;96.20;;;8.40;85.57;99097.72;5072854;28;20640;-82
2021/10/10 00:40:34;;;;;;;13.93;11.33;;;8.70;96.30;;;8.31;87.53;99091.16;5055468;28;20667;-82
2021/10/10 00:43:02;;;;;;;15.93;11.40;;;8.60;96.60;;;8.30;86.90;99097.28;5057296;28;20608;-82
2021/10/10 00:45:33;;;;;;;16.90;11.20;;;8.60;96.90;;;8.30;86.46;99093.81;5065476;28;21215;-82
2021/10/10 00:48:03;;;;;;;14.50;9.97;;;8.60;96.90;;;8.25;85.75;99096.59;5057538;28;20621;-82
2021/10/10 00:50:33;;;;;;;14.03;10.23;;;8.50;96.50;;;8.20;86.74;99093.38;5059093;28;20957;-82
2021/10/10 00:53:03;;;;;;;15.77;10.13;;;8.50;96.60;;;8.17;87.19;99084.88;5052339;28;20712;-82
2021/10/10 00:55:35;;;;;;;13.70;10.33;;;8.40;96.70;;;8.15;88.08;99090.13;5052758;28;20675;-82
2021/10/10 00:58:04;;;;;;;13.30;10.43;;;8.40;96.80;;;8.14;86.81;99082.41;5059032;28;20628;-82
2021/10/10 01:00:34;;;;;;;13.23;10.27;;;8.40;96.80;;;8.08;86.88;99082.63;5060384;28;20632;-82
2021/10/10 01:03:03;;;;;;;14.80;10.23;;;8.40;97.10;;;8.05;88.27;99085.38;5053457;28;20675;-82
2021/10/10 01:05:32;;;;;;;14.73;10.53;;;8.30;97.00;;;8.03;88.38;99087.19;5056262;28;20653;-82
2021/10/10 01:08:01;;;;;;;16.97;11.77;;;8.30;97.10;;;8.00;88.01;99088.16;5066268;28;20664;-82
2021/10/10 01:10:32;;;;;;;14.70;10.50;;;8.30;97.20;;;7.98;86.75;99083.94;5058254;28;20998;-82
2021/10/10 01:13:02;;;;;;;14.83;10.40;;;8.30;97.20;;;7.99;86.78;99086.47;5057301;28;20626;-82
2021/10/10 01:15:34;;;;;;;16.80;10.90;;;8.30;97.00;;;7.96;87.58;99082.31;5057764;28;20727;-82
2021/10/10 01:18:03;;;;;;;13.40;9.83;;;8.20;97.00;;;7.89;85.86;99079.13;5055610;28;20631;-82
2021/10/10 01:20:44;;;;;;;11.73;9.80;;;8.20;96.60;;;7.84;87.13;99077.63;5059876;28;20621;-82
2021/10/10 01:23:13;;;;;;;12.73;9.53;;;8.20;96.40;;;7.80;87.04;99068.28;5067664;28;20671;-82
2021/10/10 01:25:42;;;;;;;13.50;9.73;;;8.10;96.60;;;7.78;87.22;99067.50;5050838;28;20648;-82
2021/10/10 01:28:11;;;;;;;13.83;9.80;;;8.10;96.70;;;7.76;87.71;99064.16;5059021;28;20632;-82
2021/10/10 01:30:41;;;;;;;14.33;10.10;;;8.10;96.60;;;7.75;86.80;99067.63;5065560;28;20633;-82
2021/10/10 01:33:12;;;;;;;14.10;11.30;;;8.10;97.00;;;7.71;87.61;99066.94;5057034;28;21075;-82
2021/10/10 01:35:42;;;;;;;13.10;9.83;;;8.00;97.10;;;7.71;88.30;99055.69;5054453;28;21140;-82
2021/10/10 01:38:17;;;;;;;15.10;9.73;;;8.00;97.20;;;7.66;87.88;99063.66;5058081;28;21229;-82
2021/10/10 01:40:46;;;;;;;13.37;9.73;;;8.00;96.90;;;7.64;86.54;99060.28;5060087;28;20634;-82
2021/10/10 01:43:15;;;;;;;14.00;9.77;;;7.90;96.90;;;7.59;87.56;99058.78;5061227;28;20631;-82
2021/10/10 01:45:44;;;;;;;13.87;9.50;;;7.90;97.10;;;7.59;88.48;99064.84;5058535;28;20659;-82
2021/10/10 01:48:13;;;;;;;13.97;10.10;;;7.90;97.40;;;7.58;89.02;99070.09;5063563;28;20710;-82
2021/10/10 01:50:43;;;;;;;13.07;10.03;;;7.90;97.60;;;7.55;87.33;99065.03;5060256;28;21389;-82
2021/10/10 01:53:12;;;;;;;13.70;9.63;;;7.80;97.50;;;7.55;87.48;99065.03;5056826;28;20631;-82
2021/10/10 01:55:44;;;;;;;15.13;10.50;;;7.80;97.20;;;7.50;87.37;99066.94;5055362;28;20613;-82
2021/10/10 01:58:13;;;;;;;14.93;9.23;;;7.80;97.00;;;7.49;86.50;99060.06;5054668;28;20620;-82
2021/10/10 02:00:42;;;;;;;13.23;10.10;;;7.80;96.80;;;7.47;87.37;99064.47;5073228;28;20629;-82
2021/10/10 02:03:11;;;;;;;11.80;9.43;;;7.80;96.80;;;7.44;87.69;99067.19;5061942;28;20624;-82
2021/10/10 02:05:40;;;;;;;15.37;10.70;;;7.80;96.90;;;7.41;86.41;99063.88;5054046;28;21169;-82
2021/10/10 02:08:10;;;;;;;15.97;10.60;;;7.70;96.90;;;7.37;86.72;99059.75;5063730;28;20648;-82
2021/10/10 02:10:39;;;;;;;14.37;9.93;;;7.70;96.80;;;7.30;86.21;99053.94;5061627;28;20623;-82
2021/10/10 02:13:08;;;;;;;14.07;10.70;;;7.60;96.70;;;7.24;86.61;99048.97;5057733;28;20637;-82
2021/10/10 02:15:38;;;;;;;13.23;10.27;;;7.60;96.60;;;7.29;86.78;99049.66;5073521;28;21206;-82
2021/10/10 02:18:08;;;;;;;14.53;10.60;;;7.60;96.80;;;7.30;87.58;99053.94;5064942;28;20660;-82
2021/10/10 02:20:36;;;;;;;13.70;10.50;;;7.60;97.00;;;7.29;87.88;99051.41;5079134;28;20620;-82
2021/10/10 02:23:05;;;;;;;11.90;9.73;;;7.50;97.10;;;7.27;88.13;99046.25;5064846;28;20627;-82
2021/10/10 02:25:35;;;;;;;15.30;10.27;;;7.50;97.50;;;7.27;87.83;99048.84;5058543;28;20639;-82
2021/10/10 02:28:05;;;;;;;17.50;11.20;;;7.50;97.40;;;7.26;87.81;99052.38;5058219;28;20633;-82
2021/10/10 02:30:33;;;;;;;14.77;10.47;;;7.50;97.30;;;7.26;87.11;99044.59;5054139;28;20997;-82
2021/10/10 02:33:02;;;;;;;14.07;10.37;;;7.50;97.70;;;7.18;85.69;99050.97;5057036;28;20637;-82
2021/10/10 02:35:31;;;;;;;16.97;10.87;;;7.50;96.50;;;7.11;86.71;99052.97;5061795;28;20640;-82
2021/10/10 02:37:59;;;;;;;14.60;10.60;;;7.40;96.40;;;7.10;86.34;99048.69;5039474;28;20648;-82
2021/10/10 02:40:28;;;;;;;15.93;11.40;;;7.40;96.50;;;7.07;87.27;99042.78;5065951;28;20648;-82
2021/10/10 02:42:58;;;;;;;14.17;10.47;;;7.30;96.80;;;7.07;87.90;99050.56;5065250;28;20635;-82
2021/10/10 02:45:27;;;;;;;19.40;11.23;;;7.30;97.10;;;7.04;88.56;99043.75;5054550;28;20604;-82
2021/10/10 02:47:55;;;;;;;15.60;10.90;;;7.30;97.50;;;7.04;88.62;99046.34;5041017;28;20664;-82
2021/10/10 02:50:24;;;;;;;16.13;11.00;;;7.30;98.00;;;7.06;88.87;99044.53;5057946;28;20643;-82
2021/10/10 02:52:52;;;;;;;15.03;11.47;;;7.30;98.20;;;7.08;88.80;99047.91;5056079;28;20616;-82
2021/10/10 02:55:21;;;;;;;18.93;10.17;;;7.30;98.10;;;7.04;88.19;99048.94;5068673;28;20666;-82
2021/10/10 02:57:50;;;;;;;17.10;11.57;;;7.30;98.10;;;7.04;88.12;99051.53;5060262;28;20613;-82
2021/10/10 03:00:20;;;;;;;14.83;10.23;;;7.30;98.00;;;7.03;88.00;99047.22;5067647;28;20647;-82
2021/10/10 03:02:48;;;;;;;15.87;11.00;;;7.40;98.10;;;7.03;88.82;99049.81;5055004;28;20627;-82
2021/10/10 03:05:17;;;;;;;12.87;10.03;;;7.30;97.90;;;7.04;88.58;99046.34;5068024;28;20624;-82
2021/10/10 03:07:46;;;;;;;11.93;9.23;;;7.30;97.70;;;7.04;88.44;99053.28;5059336;28;21293;-82
2021/10/10 03:10:14;;;;;;;18.20;10.87;;;7.30;97.70;;;7.00;87.75;99046.50;5067099;28;20613;-82
2021/10/10 03:12:43;;;;;;;13.43;9.93;;;7.30;97.80;;;7.00;88.74;99045.69;5065363;28;20699;-82
2021/10/10 03:15:11;;;;;;;16.80;10.60;;;7.30;97.70;;;6.96;86.98;99051.88;5063285;28;20632;-82
2021/10/10 03:17:41;;;;;;;16.20;10.60;;;7.30;97.50;;;6.95;88.90;99055.41;5057423;28;21201;-82
2021/10/10 03:20:12;;;;;;;13.47;10.10;;;7.30;97.80;;;6.95;87.98;99045.03;5053910;28;20645;-82
2021/10/10 03:22:40;;;;;;;14.83;9.80;;;7.20;97.70;;;6.92;88.78;99048.56;5056667;28;20617;-82
2021/10/10 03:25:09;;;;;;;12.27;9.30;;;7.20;97.90;;;6.93;88.19;99049.41;5056027;28;20684;-82
2021/10/10 03:27:38;;;;;;;17.50;10.50;;;7.20;98.00;;;6.92;88.60;99055.50;5056389;28;20675;-82
2021/10/10 03:30:07;;;;;;;15.47;10.50;;;7.20;97.80;;;6.91;88.61;99038.25;5062493;28;20637;-82
2021/10/10 03:32:37;;;;;;;17.43;9.97;;;7.20;98.00;;;6.84;87.67;99042.84;5054624;28;20711;-82
2021/10/10 03:35:09;;;;;;;12.93;9.67;;;7.10;97.40;;;6.75;86.19;99048.38;5058792;28;20631;-82
2021/10/10 03:37:38;;;;;;;14.43;9.30;;;7.10;96.90;;;6.69;85.66;99053.78;5064412;28;21452;-82
2021/10/10 03:40:09;;;;;;;16.37;10.50;;;7.00;96.60;;;6.64;86.50;99055.69;5060290;28;20630;-82
2021/10/10 03:42:39;;;;;;;15.90;9.93;;;6.90;96.70;;;6.60;86.63;99053.28;5063203;28;20740;-82
2021/10/10 03:45:09;;;;;;;15.40;10.13;;;6.90;96.70;;;6.55;87.39;99049.19;5058513;28;21392;-82
2021/10/10 03:47:38;;;;;;;14.30;10.43;;;6.90;97.00;;;6.55;87.35;99050.00;5054526;28;20672;-82
2021/10/10 03:50:10;;;;;;;17.17;9.70;;;6.90;97.10;;;6.60;86.86;99043.78;5049234;28;20644;-82
2021/10/10 03:52:40;;;;;;;13.50;10.17;;;6.90;97.00;;;6.57;87.10;99038.69;5076732;28;20663;-82
2021/10/10 03:57:58;;;;;;;14.47;10.97;;;6.90;97.10;;;6.50;87.53;99041.56;5049702;28;21206;-82
2021/10/10 04:00:30;;;;;;;18.80;10.80;;;6.80;97.20;;;6.52;87.42;99042.34;5060114;28;20663;-82
2021/10/10 04:03:02;;;;;;;14.43;10.07;;;6.80;97.30;;;6.51;87.88;99038.09;5063175;28;21006;-82
2021/10/10 04:05:42;;;;;;;14.73;10.33;;;6.90;97.40;;;6.53;87.99;99044.06;5057549;28;20635;-82
2021/10/10 04:08:11;;;;;;;14.27;10.70;;;6.90;97.40;;;6.55;87.70;99037.06;5057069;28;21290;-82
2021/10/10 04:10:39;;;;;;;14.03;9.67;;;6.90;97.50;;;6.54;88.40;99050.06;5060744;28;20627;-82
2021/10/10 04:13:08;;;;;;;16.07;9.80;;;6.90;97.90;;;6.55;88.13;99049.19;5058169;28;20633;-82
2021/10/10 04:15:37;;;;;;;15.50;10.77;;;6.90;97.70;;;6.55;88.12;99050.00;5060505;28;21147;-82
2021/10/10 04:18:07;;;;;;;15.30;10.80;;;6.90;97.70;;;6.53;87.87;99049.22;5059188;28;21460;-82
2021/10/10 04:20:36;;;;;;;17.10;10.73;;;6.80;97.40;;;6.51;87.90;99051.03;5068982;28;20628;-82
2021/10/10 04:23:05;;;;;;;15.00;10.53;;;6.80;97.50;;;6.48;88.85;99047.69;5058834;28;20617;-82
2021/10/10 04:25:35;;;;;;;16.47;10.77;;;6.80;98.10;;;6.48;88.68;99047.69;5056478;28;20640;-82
2021/10/10 04:28:04;;;;;;;11.63;9.40;;;6.80;98.10;;;6.48;87.86;99052.88;5062019;28;21204;-82
2021/10/10 04:30:33;;;;;;;14.40;10.20;;;6.80;98.00;;;6.47;88.27;99046.88;5062276;28;20651;-83
2021/10/10 04:33:01;;;;;;;12.17;9.60;;;6.80;97.80;;;6.47;88.17;99048.63;5059634;28;20639;-83
2021/10/10 04:35:30;;;;;;;13.77;9.87;;;6.80;97.90;;;6.47;88.20;99054.63;5052609;28;21211;-83
2021/10/10 04:38:00;;;;;;;13.03;10.23;;;6.80;98.10;;;6.42;87.83;99053.09;5056124;28;20647;-83
2021/10/10 04:40:29;;;;;;;16.20;10.17;;;6.80;97.50;;;6.41;87.58;99059.22;5053343;28;20775;-83
2021/10/10 04:42:57;;;;;;;13.80;10.83;;;6.70;97.30;;;6.39;88.02;99051.50;5052247;28;20619;-83
2021/10/10 04:45:26;;;;;;;15.00;10.03;;;6.70;97.30;;;6.36;87.37;99048.16;5056638;28;20636;-83
2021/10/10 04:47:55;;;;;;;14.17;10.10;;;6.70;97.20;;;6.31;87.67;99044.88;5053562;28;20661;-82
2021/10/10 04:50:26;;;;;;;14.70;10.23;;;6.70;97.30;;;6.30;87.53;99050.97;5051908;28;20695;-82
2021/10/10 04:52:54;;;;;;;12.80;9.67;;;6.70;97.20;;;6.30;87.33;99051.81;5078839;28;21015;-82
2021/10/10 04:55:24;;;;;;;12.67;9.23;;;6.70;97.20;;;6.26;87.27;99050.22;5058009;28;20617;-82
2021/10/10 04:57:54;;;;;;;15.50;9.00;;;6.60;97.10;;;6.23;87.47;99045.16;5054596;28;20632;-82
2021/10/10 05:00:22;;;;;;;14.97;10.50;;;6.60;97.10;;;6.20;87.17;99050.44;5052552;28;20632;-82
2021/10/10 05:02:53;;;;;;;13.47;9.53;;;6.60;97.00;;;6.19;87.13;99055.69;5061478;28;20690;-82
2021/10/10 05:05:22;;;;;;;13.43;8.83;;;6.50;96.80;;;6.16;87.04;99048.88;5059013;28;20715;-82
2021/10/10 05:07:51;;;;;;;14.80;10.37;;;6.50;97.00;;;6.13;88.04;99054.19;5054478;28;20677;-82
2021/10/10 05:10:20;;;;;;;18.30;10.87;;;6.50;97.40;;;6.13;87.66;99048.13;5055216;28;20625;-82
2021/10/10 05:12:50;;;;;;;19.73;9.90;;;6.50;97.70;;;6.08;87.63;99047.47;5054958;28;20609;-82
2021/10/10 05:15:18;;;;;;;12.20;9.33;;;6.40;97.10;;;6.04;87.13;99050.22;5063690;28;20612;-82
2021/10/10 05:17:47;;;;;;;17.57;12.83;;;6.40;97.00;;;5.97;87.13;99049.59;5049596;28;20631;-82
2021/10/10 05:20:16;;;;;;;22.10;13.37;;;6.40;96.90;;;5.95;87.14;99050.53;5053793;28;20632;-82
2021/10/10 05:22:44;;;;;;;19.13;12.90;;;6.30;96.80;;;5.93;86.64;99052.34;5058991;28;21155;-82
2021/10/10 05:25:13;;;;;;;20.43;12.97;;;6.30;96.80;;;5.94;87.16;99054.00;5062449;28;20620;-82
2021/10/10 05:27:41;;;;;;;15.97;11.27;;;6.30;96.80;;;5.91;87.42;99059.28;5056869;28;20661;-82
2021/10/10 05:30:12;;;;;;;16.40;11.00;;;6.30;96.90;;;5.90;87.59;99055.03;5043710;28;20621;-82
2021/10/10 05:32:40;;;;;;;17.47;10.70;;;6.20;97.00;;;5.92;87.18;99063.56;5052761;28;20732;-82
2021/10/10 05:35:10;;;;;;;16.97;11.00;;;6.20;97.20;;;5.93;87.34;99067.88;5060847;28;20636;-82
2021/10/10 05:37:39;;;;;;;15.83;10.53;;;6.20;97.30;;;5.92;87.86;99061.81;5054977;28;20643;-82
2021/10/10 05:40:10;;;;;;;13.43;10.57;;;6.20;97.30;;;5.93;87.43;99067.88;5059528;28;20612;-82
2021/10/10 05:42:39;;;;;;;13.83;11.37;;;6.30;97.30;;;5.92;87.49;99061.00;5070130;28;20656;-82
2021/10/10 05:45:09;;;;;;;19.07;10.20;;;6.30;97.20;;;5.92;87.70;99061.81;5057501;28;20613;-82
2021/10/10 05:47:39;;;;;;;15.00;10.83;;;6.20;97.30;;;5.98;87.50;99066.78;5054655;28;20653;-82
2021/10/10 05:50:08;;;;;;;17.20;10.97;;;6.30;97.50;;;6.04;88.09;99063.16;5062404;28;20623;-82
2021/10/10 05:52:37;;;;;;;19.70;12.43;;;6.40;97.40;;;6.03;87.57;99059.72;5055596;28;20628;-82
2021/10/10 05:55:09;;;;;;;18.80;12.90;;;6.40;97.30;;;6.04;87.25;99068.34;5082951;28;20627;-82
2021/10/10 05:57:44;;;;;;;17.77;12.60;;;6.30;97.20;;;6.01;87.78;99065.84;5046738;28;20628;-82
2021/10/10 06:00:15;;;;;;;14.93;10.80;;;6.30;97.50;;;6.13;88.01;99061.06;5068699;28;20617;-82
2021/10/10 06:02:46;;;;;;;16.57;11.57;;;6.40;98.00;;;6.28;88.05;99061.38;5062439;28;20621;-82
2021/10/10 06:05:16;;;;;;;17.50;11.43;;;6.50;98.10;;;6.43;88.30;99066.00;5053661;28;21136;-82
2021/10/10 06:07:45;;;;;;;21.80;14.07;;;6.60;98.40;;;6.58;88.33;99065.44;5064887;28;20658;-82
2021/10/10 06:10:14;;;;;;;17.07;11.87;;;6.80;98.40;;;6.73;87.81;99065.72;5077334;28;20619;-82
2021/10/10 06:12:42;;;;;;;17.47;12.43;;;6.90;98.30;;;6.81;87.90;99061.09;5067191;28;20613;-82
2021/10/10 06:15:11;;;;;;;14.43;10.60;;;6.90;98.00;;;6.97;87.22;99063.94;5069782;28;20624;-82
2021/10/10 06:17:39;;;;;;;19.23;12.10;;;7.10;98.00;;;7.10;87.10;99066.84;5061702;28;20628;-82
2021/10/10 06:20:11;;;;;;;18.17;11.93;;;7.20;98.10;;;7.31;86.09;99062.56;5056636;28;20617;-82
2021/10/10 06:22:39;;;;;;;16.87;12.10;;;7.40;98.00;;;7.50;85.62;99073.00;5071838;28;21024;-82
2021/10/10 06:25:09;;;;;;;19.10;11.83;;;7.60;97.80;;;7.59;85.88;99077.81;5064622;28;20632;-82
2021/10/10 06:27:37;;;;;;;15.40;11.17;;;7.70;97.00;;;7.72;85.30;99075.56;5066240;28;20620;-82
2021/10/10 06:30:07;;;;;;;17.20;12.20;;;7.80;96.80;;;7.83;85.20;99076.78;5062978;28;20998;-82
2021/10/10 06:32:38;;;;;;;13.03;10.23;;;7.90;97.30;;;8.00;84.50;99080.38;5060636;28;20629;-82
2021/10/10 06:35:09;;;;;;;16.87;11.90;;;8.10;96.70;;;8.17;83.34;99083.13;5042184;28;20656;-82
2021/10/10 06:37:40;;;;;;;15.43;11.43;;;8.30;96.80;;;8.36;84.45;99077.97;5068026;28;21441;-82
2021/10/10 06:40:10;;;;;;;16.37;12.10;;;8.40;96.40;;;8.52;83.12;99079.81;5061214;28;20740;-82
2021/10/10 06:42:38;;;;;;;18.77;11.73;;;8.60;96.10;;;8.67;82.88;99079.13;5077035;28;20628;-82
2021/10/10 06:45:09;;;;;;;16.00;11.57;;;8.80;96.00;;;8.80;82.08;99086.31;5062321;28;20718;-82
2021/10/10 06:47:37;;;;;;;18.17;12.40;;;8.80;95.20;;;8.94;83.31;99089.13;5058084;28;20613;-82
2021/10/10 06:50:14;;;;;;;16.90;12.30;;;9.00;95.60;;;9.09;80.86;99089.25;5058600;28;20731;-82
2021/10/10 06:52:43;;;;;;;16.30;11.63;;;9.20;95.00;;;9.10;82.01;99085.75;5064214;28;20711;-82
2021/10/10 06:55:13;;;;;;;16.00;11.87;;;9.10;94.90;;;9.24;81.94;99083.34;5057246;28;21228;-82
2021/10/10 06:57:41;;;;;;;16.67;12.60;;;9.30;95.00;;;9.45;82.46;99092.72;5052821;28;20626;-82
2021/10/10 07:00:12;;;;;;;16.30;11.73;;;9.50;95.30;;;9.57;81.92;99092.97;5052711;28;20639;-82
2021/10/10 07:02:42;;;;;;;16.77;12.30;;;9.60;95.10;;;9.66;82.03;99094.31;5056735;28;20655;-82
2021/10/10 07:05:15;;;;;;;16.40;11.93;;;9.70;94.80;;;9.88;80.84;99108.81;5053799;28;20632;-82
2021/10/10 07:07:44;;;;;;;15.50;12.50;;;9.90;94.80;;;10.06;79.27;99107.94;5049458;28;20666;-82
2021/10/10 07:10:13;;;;;;;18.67;12.33;;;10.10;93.30;;;10.14;79.85;99106.63;5062144;28;20660;-82
2021/10/10 07:12:42;;;;;;;17.90;13.00;;;10.20;93.40;;;10.26;79.28;99106.00;5063736;28;20616;-82
2021/10/10 07:15:13;;;;;;;19.17;13.70;;;10.30;93.10;;;10.42;80.06;99106.91;5060603;28;21070;-82
2021/10/10 07:17:41;;;;;;;16.70;12.37;;;10.40;93.20;;;10.61;80.17;99107.63;5059092;28;21441;-82
2021/10/10 07:20:14;;;;;;;18.23;12.50;;;10.60;93.50;;;10.73;79.06;99107.81;5043201;28;21004;-82
2021/10/10 07:22:57;;;;;;;18.60;13.53;;;10.70;93.50;;;10.86;79.11;99111.50;5059210;28;21014;-82
2021/10/10 07:25:26;;;;;;;18.83;13.80;;;10.80;92.80;;;11.08;80.01;99104.16;5060440;28;20613;-82
2021/10/10 07:27:54;;;;;;;17.00;12.30;;;11.10;93.60;;;11.28;78.41;99102.19;5055788;28;20632;-82
2021/10/10 07:30:23;;;;;;;18.00;13.37;;;11.20;93.20;;;11.46;79.69;99101.16;5054325;28;20656;-82
2021/10/10 07:32:51;;;;;;;18.37;13.73;;;11.40;93.40;;;11.61;76.68;99095.13;5057304;28;20633;-82
2021/10/10 07:35:21;;;;;;;17.23;14.57;;;11.60;92.50;;;11.77;79.08;99099.38;5061937;28;20653;-82
2021/10/10 07:37:50;;;;;;;17.10;13.40;;;11.70;92.70;;;11.92;76.67;99107.19;5062918;28;20640;-82
2021/10/10 07:40:19;;;;;;;19.47;13.73;;;11.90;92.20;;;12.02;76.06;99100.47;5060441;28;20636;-82
2021/10/10 07:42:47;;;;;;;16.10;13.50;;;12.00;91.90;;;12.09;78.14;99104.44;5056145;28;21254;-82
2021/10/10 07:45:21;;;;;;;18.20;14.80;;;12.10;92.00;;;12.18;75.61;99103.03;5062353;28;20634;-82
2021/10/10 07:48:01;;;;;;;20.23;13.70;;;12.10;91.40;;;12.30;77.12;99111.03;5062421;28;21164;-82
2021/10/10 07:50:41;;;;;;;21.10;15.10;;;12.20;91.60;;;12.53;77.64;99115.75;5066149;28;20656;-82
2021/10/10 07:53:10;;;;;;;18.57;15.17;;;12.40;92.00;;;12.62;77.49;99113.41;5071270;28;21201;-82
2021/10/10 07:55:42;;;;;;;21.77;14.37;;;12.60;91.60;;;12.74;75.70;99117.91;5061040;28;20604;-82
2021/10/10 07:58:10;;;;;;;21.77;15.60;;;12.70;91.30;;;12.87;75.52;99122.34;5066782;28;20648;-83
2021/10/10 08:00:40;;;;;;;22.30;16.13;;;12.80;91.80;;;12.95;75.66;99122.72;5058079;28;20674;-83
2021/10/10 08:03:08;;;;;;;20.63;15.50;;;12.90;91.30;;;13.13;76.02;99116.34;5056394;28;20636;-83
2021/10/10 08:05:43;;;;;;;20.70;15.67;;;13.00;91.90;;;13.29;75.95;99120.53;5059751;28;20666;-83
2021/10/10 08:08:13;;;;;;;20.20;15.57;;;13.20;91.40;;;13.38;74.56;99121.72;5052147;28;20647;-83
2021/10/10 08:10:41;;;;;;;23.87;16.10;;;13.30;90.90;;;13.55;76.01;99111.03;5058200;28;21079;-83
2021/10/10 08:13:10;;;;;;;22.10;15.67;;;13.40;91.70;;;13.64;74.29;99114.72;5058052;28;20633;-81
2021/10/10 08:15:39;;;;;;;20.47;16.10;;;13.60;90.60;;;13.73;73.54;99115.94;5046944;28;20735;-81
2021/10/10 08:18:09;;;;;;;24.50;16.30;;;13.60;90.10;;;13.88;74.67;99107.06;5060154;28;20655;-81
2021/10/10 08:20:38;;;;;;;21.77;17.40;;;13.80;90.70;;;14.09;74.68;99106.53;5070152;28;20608;-81
2021/10/10 08:23:09;;;;;;;22.53;16.60;;;14.00;91.40;;;14.14;71.36;99110.50;5053363;28;20731;-82
2021/10/10 08:25:38;;;;;;;22.77;16.80;;;14.10;88.90;;;14.16;72.38;99113.88;5057105;28;20700;-83
2021/10/10 08:28:07;;;;;;;21.83;16.37;;;14.10;89.50;;;14.36;69.72;99118.66;5046179;28;20636;-83
2021/10/10 08:30:38;;;;;;;22.23;16.90;;;14.30;87.20;;;14.44;70.27;99115.50;5061685;28;21102;-83
2021/10/10 08:33:06;;;;;;;21.60;14.93;;;14.40;86.70;;;14.59;68.74;99114.47;5078042;28;20617;-81
2021/10/10 08:35:35;;;;;;;28.23;19.67;;;14.50;84.80;;;14.73;69.45;99120.44;5056629;28;20631;-81
2021/10/10 08:38:04;;;;;;;20.97;15.77;;;14.70;85.70;;;14.84;69.33;99115.28;5057586;28;20652;-81
2021/10/10 08:40:34;;;;;;;22.27;17.80;;;14.80;85.40;;;14.92;67.39;99116.47;5058451;28;20628;-81
2021/10/10 08:43:07;;;;;;;22.17;16.50;;;14.90;82.70;;;14.87;67.30;99123.81;5077933;28;20658;-81
2021/10/10 08:45:38;;;;;;;22.30;15.70;;;14.90;82.00;;;15.01;69.34;99117.63;5055884;28;21212;-81
2021/10/10 08:48:06;;;;;;;22.23;16.40;;;15.00;85.00;;;15.16;69.72;99122.63;5065870;28;20719;-81
2021/10/10 08:50:37;;;;;;;22.17;15.90;;;15.10;84.10;;;15.36;69.38;99124.72;5064705;28;20648;-81
2021/10/10 08:53:07;;;;;;;22.53;16.53;;;15.30;84.60;;;15.51;68.65;99124.47;5054969;28;20627;-81
2021/10/10 08:55:37;;;;;;;21.30;15.90;;;15.40;83.80;;;15.65;68.30;99119.91;5062345;28;20976;-81
2021/10/10 08:58:09;;;;;;;28.67;14.83;;;15.50;82.70;;;15.74;66.73;99124.50;5050914;28;21143;-81
2021/10/10 09:00:44;;;;;;;21.00;15.50;;;15.70;81.80;;;15.77;65.92;99120.78;5057412;28;21164;-81
2021/10/10 09:03:13;;;;;;;19.60;15.00;;;15.70;80.60;;;15.63;64.71;99118.34;5056831;28;20651;-81
2021/10/10 09:05:51;;;;;;;21.50;16.03;;;15.60;79.20;;;15.60;65.00;99114.13;5059899;28;21275;-81
2021/10/10 09:08:21;;;;;;;22.13;15.37;;;15.60;78.50;;;15.71;67.52;99118.59;5054632;28;20752;-81
2021/10/10 09:11:00;;;;;;;22.23;16.17;;;15.70;81.50;;;15.86;68.18;99120.13;5059240;28;21218;-81
2021/10/10 09:13:37;;;;;;;26.40;17.00;;;15.80;80.90;;;15.93;66.74;99116.09;5066309;28;20659;-81
2021/10/10 09:16:07;;;;;;;23.23;16.90;;;15.90;80.10;;;16.03;66.11;99113.53;5056102;28;20623;-81
2021/10/10 09:18:39;;;;;;;24.50;16.60;;;16.00;80.90;;;16.06;68.09;99120.34;5037772;28;20651;-81
2021/10/10 09:21:16;;;;;;;21.50;16.20;;;16.00;80.20;;;16.12;66.41;99109.38;5056541;28;20624;-81
2021/10/10 09:23:50;;;;;;;24.50;16.33;;;16.00;80.90;;;16.18;68.42;99109.75;5056471;28;21044;-81
2021/10/10 09:26:21;;;;;;;23.87;16.40;;;16.10;81.00;;;16.25;66.68;99108.38;5048852;28;20682;-81
2021/10/10 09:28:53;;;;;;;21.67;15.97;;;16.20;80.90;;;16.27;67.10;99109.09;5055093;28;20641;-81
2021/10/10 09:31:22;;;;;;;19.90;15.97;;;16.20;80.20;;;16.29;67.29;99103.72;5053493;28;21231;-81
2021/10/10 09:33:58;;;;;;;21.13;15.60;;;16.20;80.80;;;16.28;65.27;99105.53;5062119;28;20636;-81
2021/10/10 09:36:29;;;;;;;24.47;16.30;;;16.20;78.00;;;16.32;66.63;99103.50;5050055;28;20634;-81
2021/10/10 09:39:05;;;;;;;20.53;15.37;;;16.20;78.90;;;16.34;64.64;99093.69;5052231;28;21194;-81
2021/10/10 09:41:39;;;;;;;20.63;15.20;;;16.30;78.80;;;16.40;66.59;99093.22;5063845;28;20694;-81
2021/10/10 09:44:14;;;;;;;21.60;16.00;;;16.30;80.20;;;16.54;67.41;99102.59;5041936;28;20625;-81
2021/10/10 09:46:45;;;;;;;22.53;15.80;;;16.40;80.80;;;16.52;67.30;99101.88;5054938;28;20628;-81
2021/10/10 09:49:25;;;;;;;23.47;16.53;;;16.50;79.30;;;16.58;66.25;99098.78;5048138;28;20818;-81
2021/10/10 09:51:56;;;;;;;19.63;15.67;;;16.50;80.20;;;16.68;67.43;99098.91;5061476;28;21290;-81
2021/10/10 09:54:25;;;;;;;21.80;16.40;;;16.60;79.60;;;16.74;65.64;99101.91;5059848;28;20612;-81
2021/10/10 09:57:06;;;;;;;22.30;15.63;;;16.70;78.00;;;16.60;64.84;99110.03;5047901;28;20620;-81
2021/10/10 09:59:35;;;;;;;19.80;13.03;;;16.50;76.50;;;16.53;62.15;99102.72;5065740;28;20641;-81
2021/10/10 10:02:04;;;;;;;16.63;12.40;;;16.50;73.10;;;16.49;61.56;99101.25;5064667;28;20644;-81
2021/10/10 10:04:45;;;;;;;18.03;12.20;;;16.40;71.30;;;16.50;60.18;99095.03;5059634;28;20636;-81
2021/10/10 10:07:15;;;;;;;15.47;11.77;;;16.40;70.50;;;16.45;60.76;99093.69;5057302;28;20723;-81
2021/10/10 10:09:49;;;;;;;15.50;12.27;;;16.40;70.10;;;16.54;62.36;99094.69;5042688;28;20640;-81
2021/10/10 10:12:21;;;;;;;14.40;12.10;;;16.50;71.70;;;16.54;59.75;99097.31;5056241;28;20618;-81
2021/10/10 10:14:52;;;;;;;17.30;11.20;;;16.50;69.10;;;16.48;59.04;99096.97;5061696;28;20650;-81
2021/10/10 10:17:24;;;;;;;17.50;12.57;;;16.50;67.40;;;16.41;60.03;99098.38;5058859;28;21175;-81
2021/10/10 10:19:56;;;;;;;17.27;12.70;;;16.40;67.40;;;16.49;60.87;99095.16;5049807;28;20999;-81
2021/10/10 10:22:27;;;;;;;18.10;12.50;;;16.50;69.60;;;16.50;60.33;99090.59;5050795;28;20667;-81
2021/10/10 10:24:56;;;;;;;14.87;12.00;;;16.50;68.90;;;16.55;60.92;99085.84;5071018;28;21201;-81
2021/10/10 10:27:25;;;;;;;17.27;12.73;;;16.50;68.20;;;16.52;59.94;99080.81;5058437;28;20627;-81
2021/10/10 10:29:57;;;;;;;16.93;12.47;;;16.60;68.90;;;16.57;60.14;99088.34;5059094;28;20693;-81